Ride Results

Cooyar Ride (10-03-2012)
Ride distance: 80.0 km

Outcomes - Cooyar Ride (10-03-2012)
Division No. of Entries Retired / DNE Completed Withdrawn Ineligible V/O Percentage Completed
HW 20 - 14 2 - 4 70.00%
MW 51 - 44 1 - 6 86.27%
LW 21 - 17 1 - 3 80.95%
JN 22 - 19 1 - 2 86.36%
Totals 114 - 94 5 - 15 82.46%
Results - Cooyar Ride (10-03-2012)
No. Rider Horse Place Time Leg Speeds Total
Km/Hr
H/R bpm
Heavyweight
55 Gregg Fields Cattalina 1 (BC) 5:07:00 15.0, 16.2 15.64 37, 49, 51 (Avg:50)
85 Michael Shaw Bellabin 2 5:48:00 14.2, 13.4 13.79 40, 52, 58 (Avg:55)
87 Sean Field Jaffa 3 6:33:00 13.1, 11.4 12.21 34, 43, 45 (Avg:44)
102 Paul Fitzgerald Lanamere Dolce 4 6:39:00 12.3, 11.7 12.03 40, 42, 50 (Avg:46)
31 Gary Surch Magic Minstral 4 6:39:00 13.1, 11.0 12.03 35, 46, 46 (Avg:46)
42 Chris Nichols Bashan Memphis 6 6:41:00 12.4, 11.4 11.97 31, 42, 50 (Avg:46)
28 Peter Spottswood Glenewan Dusk 7 6:51:30 12.6, 10.7 11.66 34, 52, 52 (Avg:52)
16 Selwyn Nix Dunbar Mahadik 8 6:56:00 11.9, 11.1 11.54 30, 41, 45 (Avg:43)
37 Anthony Wolgast Bashan Silver Nadeer 9 7:09:00 12.2, 10.3 11.19 35, 41, 45 (Avg:43)
59 Jaime Mansbridge Lea Ma Park La Gold 10 7:28:00 11.3, 10.1 10.71 35, 45, 57 (Avg:51)
75 Shane Butler Yanbu Hakeem 11 8:03:00 10.7, 9.2 9.94 38, 46, 50 (Avg:48)
76 Troy Butler Credo Summer Rain 11 8:03:00 10.6, 9.3 9.94 37, 44, 44 (Avg:44)
106 Steve Swan Longrun Conaar 13 8:50:00 9.4, 8.6 9.06 44, 54, 56 (Avg:55)
112 Stephen Brown Rebel 14 8:55:00 9.2, 8.7 8.97 36, 51, 60 (Avg:55)
117 Matthew Gadsby Ra Silver Dancer Heart Rate L2 0:00:00 15.2, 16.1 - 34, 47, 70 (Avg:58)
65 Greg Garred Performance Park Apollo Heart Rate L2 0:00:00 11.3, 10.1 - 31, 45, 61 (Avg:53)
44 Niels Lochtenberg Matta Mia Arad Heart Rate L2 0:00:00 15.4, 13.9 - 35, 51, 62 (Avg:56)
86 Steph Tulk Natham Park A Dzhamah Withdrawn L2 0:00:00 - - 36, 42, 47 (Avg:44)
113 Steve Barlow Tyto Ivan Lame L1 0:00:00 14.6 - 41, 49 (Avg:49)
127 Peter Toft Emily Jones TE Withdrawn L1 0:00:00 - - 30, 44 (Avg:44)
Middleweight
33 Tasha Jeremy Miss Jayne 1 (BC) 5:02:00 17.2, 14.7 15.89 40, 50, 50 (Avg:50)
11 Debra McQueen Lara's Song 1 5:02:00 17.5, 14.5 15.89 33, 46, 46 (Avg:46)
53 Karen Fields Dunwingeri Shahman 3 5:05:00 15.5, 15.8 15.74 35, 45, 51 (Avg:48)
135 Akhmed Pshunov Clovelly Park Tazeem 3 5:05:00 15.5, 15.8 15.74 32, 42, 50 (Avg:46)
137 Matt Sample Brookleigh Ricardo 3 5:05:00 15.5, 15.8 15.74 31, 50, 54 (Avg:52)
23 Lynne Drinkwater Midu Magella 6 5:07:15 16.7, 14.6 15.62 36, 46, 51 (Avg:48)
70 Kellie Hart Noname 7 5:35:00 14.7, 13.9 14.33 48, 48, 58 (Avg:53)
90 Brook Sample Brookleigh Quasar 8 5:54:00 13.8, 13.2 13.56 36, 40, 48 (Avg:44)
136 Simone Krahnen Ardai 9 6:23:00 13.2, 11.8 12.53 41, 48, 50 (Avg:49)
123 Bridget Nottle Travina 10 6:28:00 12.3, 12.3 12.37 33, 48, 52 (Avg:50)
1 Fiona Fenech Bellarine Amigo 11 6:30:00 13.0, 11.6 12.31 33, 51, 56 (Avg:53)
118 Liz Terry Ausden Illusion 12 6:33:50 12.6, 11.7 12.19 38, 55, 60 (Avg:57)
122 Lee Cutler Hillbrae Alec 13 6:39:00 12.6, 11.4 12.03 34, 45, 52 (Avg:48)
103 Caroline Fitzgerald Lanamere Kudos 13 6:39:00 12.3, 11.7 12.03 38, 43, 48 (Avg:45)
100 Angela Head Lanamere Reprise 13 6:39:00 12.3, 11.7 12.03 40, 47, 50 (Avg:48)
104 Debbie Torpy Lanamere De Javu 13 6:39:00 12.3, 11.7 12.03 34, 49, 53 (Avg:51)
38 Debbie Edwards Bashan Phoenix 17 6:41:00 12.4, 11.4 11.97 43, 37, 45 (Avg:41)
48 Jackie Gilks Reid River Reflectshine 18 6:42:00 13.4, 10.7 11.94 37, 48, 56 (Avg:52)
6 Andrea Laws-King Razorback Love Song 19 6:51:00 12.1, 11.2 11.68 35, 42, 42 (Avg:42)
125 Gayle Holmes Cairo 20 6:55:00 11.9, 11.1 11.57 39, 41, 54 (Avg:47)
18 Derryn Nix Rowallan Rufous 21 6:56:00 11.9, 11.1 11.54 38, 45, 48 (Avg:46)
21 Sabrina Stephens Mataranka Diamonds 22 6:59:00 12.1, 10.8 11.46 38, 48, 44 (Avg:46)
98 Mark Grogan Brookleigh Maestro 23 7:04:00 12.7, 10.1 11.32 30, 44, 45 (Avg:44)
97 Tarnia Kittel Summervale Brian 24 7:05:00 11.2, 11.3 11.29 37, 46, 51 (Avg:48)
14 Bridget Macintyre Indira 25 7:07:00 11.3, 11.1 11.24 35, 47, 54 (Avg:50)
25 Liz Kirk Dunwingeri Aasalah 26 7:16:00 11.8, 10.3 11.01 45, 43, 54 (Avg:48)
24 Lorraine Ternouth Drumlin Mystic Moon 26 7:16:00 12.2, 9.9 11.01 34, 41, 45 (Avg:43)
84 Lyndell Abercrombie Lindall Alabaska 28 7:22:00 11.6, 10.1 10.86 35, 42, 51 (Avg:46)
81 Renae Kuhn Lilla 29 7:29:00 11.0, 10.3 10.69 39, 50, 49 (Avg:49)
5 Kerryn Agnew Heathfield's Khalisa 30 7:32:00 10.5, 10.6 10.62 39, 41, 43 (Avg:42)
9 Vanessa Burton Heathfield's Roxy 30 7:32:00 10.5, 10.6 10.62 45, 48, 42 (Avg:45)
4 Sasha Laws-King Bint Shah Dara 30 7:32:00 10.5, 10.6 10.62 26, 42, 42 (Avg:42)
54 Ute Jordan Summerpark Maximus 33 7:51:00 10.3, 9.9 10.19 37, 45, 47 (Avg:46)
80 Ken Moir Brookleigh Scarlett 33 7:51:00 10.3, 9.9 10.19 37, 44, 46 (Avg:45)
139 Fiona Anderson Zara Farm Query 35 8:01:00 11.3, 8.9 9.98 40, 44, 50 (Avg:47)
138 Bruce Seaward Tahleah 35 8:01:00 11.3, 8.9 9.98 36, 52, 60 (Avg:56)
27 Leeanne Morgan Zanes Shadow 37 8:06:00 10.7, 9.1 9.88 36, 48, 55 (Avg:51)
88 Troy Roosen The Ghost 37 8:06:00 10.6, 9.1 9.88 40, 47, 53 (Avg:50)
22 Jane Davidson Natham Park A Dynamite 39 8:13:00 10.2, 9.2 9.74 43, 50, 52 (Avg:51)
121 Adrian Brickley Cromwell 40 8:33:00 10.3, 8.5 9.36 33, 40, 46 (Avg:43)
51 Cathie Bruce Maske 41 8:48:00 9.4, 8.7 9.09 37, 46, 46 (Avg:46)
52 Phil Thomson Faith 41 8:48:00 9.4, 8.7 9.09 34, 44, 45 (Avg:44)
105 Jackie Swan Shantele 43 8:50:00 9.4, 8.6 9.06 38, 42, 45 (Avg:43)
15 Julie Mohi Arabiana Banama 44 8:55:00 9.2, 8.7 8.97 39, 45, 48 (Avg:46)
12 Ruth Dixon El Romero Heart Rate L2 0:00:00 12.3, 9.5 - 41, 55, 65 (Avg:60)
74 Stephen Gray Longrun Danen Heart Rate L2 0:00:00 10.7, 9.1 - 34, 50, 62 (Avg:56)
20 Sarah Love Reece Heart Rate L2 0:00:00 14.2, 11.3 - 38, 48, 73 (Avg:60)
26 Patricia Coonan Chippington Heart Rate L1 0:00:00 11.8 - 39, 60 (Avg:60)
78 Kerrie Ellery Erehwon Park Quiz Master Lame L1 0:00:00 12.4 - 42, 48 (Avg:48)
99 Saasha Grogan Moondarra Cimeron Withdrawn L1 0:00:00 - - 37, 49 (Avg:49)
132 Kylie Reid Waralea Kyam Lame L1 0:00:00 11.3 - 36, 42 (Avg:42)
Lightweight
45 Bobbi Lochtenberg Matta Mia Dayman 1 (BC) 5:27:00 15.4, 13.9 14.68 37, 48, 46 (Avg:47)
110 Amanda Phillips Kalkadoon Alfresco 2 5:43:00 15.2, 12.9 13.99 39, 42, 54 (Avg:48)
91 Cindy Menzi Brookleigh Faith 3 5:54:00 13.8, 13.2 13.56 40, 50, 44 (Avg:47)
141 Jess Capek Drizzle 4 6:02:00 13.3, 13.1 13.26 44, 49, 55 (Avg:52)
94 Corinne Kempter Topaz 5 6:38:00 12.6, 11.4 12.06 36, 48, 45 (Avg:46)
93 Janelle Taylor Glenewan Scout 5 6:38:00 13.6, 10.8 12.06 35, 40, 50 (Avg:45)
30 Natashja Burton Lindall Kalypso 7 6:39:00 12.3, 11.7 12.03 33, 38, 52 (Avg:45)
13 Cathy Ferguson Die Kinder Summer 7 6:39:00 13.2, 11.0 12.03 36, 39, 43 (Avg:41)
10 Clare Fleming Picnic Park Desert Dancer 7 6:39:00 13.2, 11.0 12.03 43, 54, 51 (Avg:52)
47 Leigh Rich Leondon Maritz 10 6:42:00 13.4, 10.7 11.94 36, 44, 46 (Avg:45)
2 Daniele Von Elsner Omah 11 6:52:00 12.6, 10.7 11.65 41, 43, 45 (Avg:44)
35 Kate Appleby Chaswyck Starstruck 12 7:09:00 12.2, 10.3 11.19 48, 48, 54 (Avg:51)
120 Nicky Schimke Bam Bam 13 7:22:00 11.6, 10.1 10.86 39, 45, 48 (Avg:46)
92 Kelsey Irvine Brookleigh Quentin 14 7:23:00 10.6, 11.0 10.84 43, 50, 45 (Avg:47)
57 Sue Sutcliffe De Sharvell Sharkeem 15 7:27:00 11.2, 10.2 10.74 33, 48, 54 (Avg:51)
133 Mandy Doyle Captain Creek Tall Boy 16 8:17:00 9.9, 9.4 9.66 44, 46, 49 (Avg:47)
29 Kirsty Owen Natham Park A Dishaan 17 8:18:00 10.4, 8.9 9.64 39, 48, 49 (Avg:48)
66 Leah Begley Royal Dominier Heart Rate L2 0:00:00 11.8, 9.8 - 39, 48, 71 (Avg:59)
71 Pip Lillyman Natham Park A Drenalin Heart Rate L2 0:00:00 10.4, 8.9 - 34, 50, 67 (Avg:58)
128 Judy Battams Sommariva Malik Withdrawn L1 0:00:00 - - 36, 49 (Avg:49)
115 Natasha Willemse S'Shaada Kaiwan Heart Rate L1 0:00:00 12.3 - 42, 58 (Avg:58)
Junior
116 Hannah Terry Dardanga Fingal 1 5:45:00 14.2, 13.6 13.91 37, 48, 51 (Avg:49)
171 Lainie Zischke Sasam 1 5:45:00 14.2, 13.6 13.91 32, 45, 53 (Avg:49)
89 Jamie Green Hirstglen Maybe 3 (BC) 5:54:00 13.8, 13.2 13.56 36, 46, 48 (Avg:47)
32 Brooke Marshall Bashan Vashti 4 6:21:05 13.1, 12.0 12.60 37, 44, 48 (Avg:46)
131 Colleen Krahnen Lindall Footloose 5 6:23:00 13.2, 11.8 12.53 30, 40, 50 (Avg:45)
96 Matilda Hose Chelleason Rembrandt 6 6:29:00 13.2, 11.5 12.34 36, 43, 49 (Avg:46)
95 Jessica Terry Picnic Park Silver Knight 6 6:29:00 13.2, 11.5 12.34 42, 52, 60 (Avg:56)
40 Mel Simpson Storm 8 6:41:00 12.4, 11.4 11.97 38, 45, 47 (Avg:46)
126 Rilene Heydenreich Captains Creek Prancer 9 6:55:00 11.9, 11.1 11.57 44, 47, 50 (Avg:48)
124 Sarah Huddleston Captains Creek Cheyenne 9 6:55:00 11.9, 11.1 11.57 42, 45, 50 (Avg:47)
69 Darcy Begley Shinto 11 7:26:00 11.8, 9.8 10.76 34, 42, 46 (Avg:44)
67 Emily-Jade Begley Die Kinder Jasper 11 7:26:00 11.8, 9.8 10.76 35, 35, 38 (Avg:36)
56 Gemma Sutcliffe Talbarear Rapier 13 7:27:00 11.2, 10.2 10.74 39, 44, 45 (Avg:44)
82 Susannah Cleland Luciana 14 7:29:00 11.0, 10.3 10.69 38, 48, 48 (Avg:48)
79 James Coop Champ 15 7:51:00 10.3, 9.9 10.19 40, 49, 52 (Avg:50)
109 Tahlia Franke Jezabelle Oceans Of Fire 16 8:13:00 10.3, 9.1 9.74 43, 50, 54 (Avg:52)
107 Megan Stehouwer Keisha 16 8:13:00 10.3, 9.1 9.74 33, 44, 43 (Avg:43)
130 Tayla Hadzi Ceona Citation 18 8:17:00 9.9, 9.4 9.66 35, 48, 50 (Avg:49)
83 Jordan Baker Steel Poppy Dali 19 8:48:00 9.4, 8.7 9.09 38, 44, 46 (Avg:45)
19 David Anderson Jnr Ashwind Heart Rate L2 0:00:00 13.1, 12.0 - 37, 42, 62 (Avg:52)
108 Jess Fuhlbohm Debt Free Lame L2 0:00:00 10.3, 9.1 - 42, 52, 53 (Avg:52)
41 Christina Simpson Agape Evezra Withdrawn L1 0:00:00 - - 37, 45 (Avg:45)